createdAt,value
2023-01-17T00:02:14.007Z,3.43
2023-01-17T00:04:58.875Z,3.10
2023-01-17T00:07:44.247Z,3.67
2023-01-17T00:10:12.114Z,4.77
2023-01-17T00:12:39.337Z,3.13
2023-01-17T00:15:05.922Z,3.00
2023-01-17T00:17:32.241Z,3.07
2023-01-17T00:20:19.256Z,4.07
2023-01-17T00:23:05.136Z,3.97
2023-01-17T00:25:55.280Z,3.53
2023-01-17T00:28:21.495Z,2.40
2023-01-17T00:30:47.711Z,6.07
2023-01-17T00:33:13.948Z,2.97
2023-01-17T00:35:40.441Z,3.60
2023-01-17T00:38:09.048Z,3.20
2023-01-17T00:40:35.970Z,3.30
2023-01-17T00:43:21.172Z,2.80
2023-01-17T00:46:06.017Z,3.53
2023-01-17T00:48:52.307Z,4.40
2023-01-17T00:51:37.417Z,4.07
2023-01-17T00:54:22.777Z,3.87
2023-01-17T00:57:07.785Z,4.97
2023-01-17T00:59:52.923Z,3.87
2023-01-17T01:02:37.700Z,3.97
2023-01-17T01:05:23.462Z,4.13
2023-01-17T01:08:08.167Z,3.33
2023-01-17T01:10:52.987Z,3.63
2023-01-17T01:13:37.965Z,3.60
2023-01-17T01:16:22.730Z,3.07
2023-01-17T01:19:07.647Z,3.60
2023-01-17T01:21:52.432Z,3.40
2023-01-17T01:24:37.219Z,3.57
2023-01-17T01:27:21.973Z,2.67
2023-01-17T01:30:06.872Z,3.07
2023-01-17T01:32:52.285Z,4.17
2023-01-17T01:35:18.549Z,3.30
2023-01-17T01:37:44.842Z,6.40
2023-01-17T01:40:11.728Z,3.63
2023-01-17T01:42:37.987Z,3.57
2023-01-17T01:45:16.417Z,3.40
2023-01-17T01:47:42.851Z,2.77
2023-01-17T01:50:10.374Z,3.80
2023-01-17T01:52:39.317Z,2.83
2023-01-17T01:55:08.095Z,3.10
2023-01-17T01:57:38.418Z,2.30
2023-01-17T02:00:07.536Z,3.20
2023-01-17T02:02:34.288Z,3.67
2023-01-17T02:05:04.444Z,3.83
2023-01-17T02:07:33.336Z,4.40
2023-01-17T02:09:59.568Z,4.43
2023-01-17T02:12:26.804Z,4.73
2023-01-17T02:14:53.037Z,5.30
2023-01-17T02:17:38.210Z,3.10
2023-01-17T02:20:20.300Z,4.27
2023-01-17T02:23:05.327Z,4.53
2023-01-17T02:25:45.225Z,3.13
2023-01-17T02:28:30.397Z,3.20
2023-01-17T02:31:08.491Z,4.07
2023-01-17T02:33:39.168Z,4.77
2023-01-17T02:36:10.905Z,3.03
2023-01-17T02:38:40.601Z,4.57
2023-01-17T02:41:08.844Z,4.73
2023-01-17T02:43:36.375Z,3.53
2023-01-17T02:46:02.680Z,5.17
2023-01-17T02:48:31.222Z,4.20
2023-01-17T02:50:58.432Z,4.73
2023-01-17T02:53:47.833Z,7.77
2023-01-17T02:56:17.127Z,4.13
2023-01-17T02:59:05.487Z,4.17
2023-01-17T03:01:45.207Z,3.90
2023-01-17T03:04:14.533Z,3.57
2023-01-17T03:06:46.303Z,3.70
2023-01-17T03:09:13.615Z,3.70
2023-01-17T03:11:39.857Z,2.07
2023-01-17T03:14:06.100Z,2.70
2023-01-17T03:16:34.246Z,3.50
2023-01-17T03:19:00.622Z,2.27
2023-01-17T03:21:26.840Z,2.67
2023-01-17T03:23:53.145Z,3.33
2023-01-17T03:26:19.367Z,2.50
2023-01-17T03:28:45.619Z,2.50
2023-01-17T03:31:15.364Z,2.43
2023-01-17T03:33:41.633Z,2.10
2023-01-17T03:36:08.049Z,2.80
2023-01-17T03:38:34.266Z,2.20
2023-01-17T03:41:00.532Z,1.67
2023-01-17T03:43:26.755Z,1.93
2023-01-17T03:46:01.194Z,2.10
2023-01-17T03:48:27.461Z,2.60
2023-01-17T03:50:53.678Z,1.97
2023-01-17T03:53:20.013Z,2.77
2023-01-17T03:55:46.688Z,1.60
2023-01-17T03:58:13.001Z,2.70
2023-01-17T04:00:39.564Z,2.73
2023-01-17T04:03:05.795Z,2.80
2023-01-17T04:05:32.020Z,1.20
2023-01-17T04:07:58.242Z,2.23
2023-01-17T04:10:24.461Z,1.30
2023-01-17T04:12:50.686Z,1.60
2023-01-17T04:15:16.905Z,1.53
2023-01-17T04:17:44.253Z,2.17
2023-01-17T04:20:18.397Z,1.93
2023-01-17T04:22:44.617Z,1.47
2023-01-17T04:25:10.909Z,1.10
2023-01-17T04:27:37.116Z,1.27
2023-01-17T04:30:03.478Z,1.03
2023-01-17T04:32:29.895Z,1.03
2023-01-17T04:34:56.137Z,1.10
2023-01-17T04:37:22.356Z,1.13
2023-01-17T04:39:48.585Z,0.97
2023-01-17T04:42:14.797Z,2.60
2023-01-17T04:44:41.222Z,1.93
2023-01-17T04:47:07.437Z,1.40
2023-01-17T04:49:33.697Z,1.03
2023-01-17T04:52:00.476Z,1.17
2023-01-17T04:54:26.719Z,0.60
2023-01-17T04:56:52.942Z,1.00
2023-01-17T04:59:19.288Z,1.30
2023-01-17T05:01:47.618Z,1.37
2023-01-17T05:04:13.885Z,0.90
2023-01-17T05:06:40.098Z,1.23
2023-01-17T05:09:06.805Z,0.83
2023-01-17T05:11:33.421Z,0.63
2023-01-17T05:14:00.364Z,0.80
2023-01-17T05:16:26.809Z,2.53
2023-01-17T05:18:53.598Z,1.23
2023-01-17T05:21:20.720Z,1.20
2023-01-17T05:23:47.464Z,0.93
2023-01-17T05:26:14.064Z,1.10
2023-01-17T05:28:40.314Z,2.00
2023-01-17T05:31:06.692Z,0.90
2023-01-17T05:33:32.939Z,1.40
2023-01-17T05:35:59.220Z,1.93
2023-01-17T05:38:25.491Z,0.87
2023-01-17T05:40:51.759Z,1.10
2023-01-17T05:43:17.991Z,1.20
2023-01-17T05:45:44.314Z,0.87
2023-01-17T05:48:10.580Z,1.33
2023-01-17T05:50:37.871Z,1.10
2023-01-17T05:53:06.574Z,1.30
2023-01-17T05:55:33.621Z,1.30
2023-01-17T05:58:00.910Z,1.47
2023-01-17T06:00:27.545Z,1.30
2023-01-17T06:02:54.922Z,1.10
2023-01-17T06:05:21.566Z,1.40
2023-01-17T06:07:47.953Z,2.27
2023-01-17T06:10:14.749Z,1.47
2023-01-17T06:12:44.341Z,1.33
2023-01-17T06:15:11.964Z,1.10
2023-01-17T06:17:38.228Z,1.43
2023-01-17T06:20:05.582Z,1.23
2023-01-17T06:22:32.166Z,1.63
2023-01-17T06:24:58.395Z,1.27
2023-01-17T06:27:24.853Z,1.33
2023-01-17T06:29:51.171Z,1.40
2023-01-17T06:32:17.425Z,1.70
2023-01-17T06:34:43.787Z,1.33
2023-01-17T06:37:10.073Z,1.50
2023-01-17T06:39:36.316Z,1.30
2023-01-17T06:42:02.644Z,1.43
2023-01-17T06:44:28.917Z,1.47
2023-01-17T06:46:55.225Z,1.70
2023-01-17T06:49:21.468Z,1.50
2023-01-17T06:51:47.745Z,2.10
2023-01-17T06:54:14.095Z,1.90
2023-01-17T06:56:40.323Z,2.03
2023-01-17T06:59:06.539Z,1.97
2023-01-17T07:01:33.007Z,1.70
2023-01-17T07:03:59.335Z,1.93
2023-01-17T07:06:28.681Z,1.90
2023-01-17T07:08:55.840Z,1.90
2023-01-17T07:11:23.587Z,2.10
2023-01-17T07:13:50.201Z,3.03
2023-01-17T07:16:16.766Z,1.90
2023-01-17T07:18:43.062Z,1.93
2023-01-17T07:21:13.935Z,1.70
2023-01-17T07:23:40.508Z,1.63
2023-01-17T07:26:06.752Z,1.90
2023-01-17T07:28:32.986Z,1.87
2023-01-17T07:30:59.288Z,1.97
2023-01-17T07:33:25.498Z,2.70
2023-01-17T07:35:51.726Z,1.70
2023-01-17T07:38:18.944Z,2.33
2023-01-17T07:40:45.791Z,1.73
2023-01-17T07:43:15.332Z,2.00
2023-01-17T07:45:45.592Z,2.20
2023-01-17T07:48:12.277Z,1.83
2023-01-17T07:50:39.007Z,3.70
2023-01-17T07:53:05.654Z,2.27
2023-01-17T07:55:31.959Z,2.03
2023-01-17T07:57:58.167Z,3.70
2023-01-17T08:00:27.485Z,2.17
2023-01-17T08:02:57.273Z,3.67
2023-01-17T08:05:23.688Z,4.47
2023-01-17T08:07:49.951Z,2.13
2023-01-17T08:10:19.276Z,2.37
2023-01-17T08:12:46.815Z,1.60
2023-01-17T08:15:14.339Z,2.60
2023-01-17T08:17:45.165Z,3.33
2023-01-17T08:20:11.499Z,5.50
2023-01-17T08:22:43.950Z,5.40
2023-01-17T08:25:10.241Z,1.83
2023-01-17T08:27:36.654Z,1.73
2023-01-17T08:30:03.011Z,2.90
2023-01-17T08:32:29.255Z,2.57
2023-01-17T08:34:57.116Z,1.33
2023-01-17T08:37:23.670Z,1.40
2023-01-17T08:39:49.958Z,1.37
2023-01-17T08:42:16.279Z,1.43
2023-01-17T08:44:43.541Z,2.40
2023-01-17T08:47:10.278Z,1.40
2023-01-17T08:49:36.475Z,1.50
2023-01-17T08:52:02.715Z,1.43
2023-01-17T08:54:28.973Z,1.20
2023-01-17T08:56:55.710Z,2.37
2023-01-17T08:59:22.195Z,1.97
2023-01-17T09:01:48.597Z,3.60
2023-01-17T09:04:15.224Z,1.77
2023-01-17T09:06:44.037Z,1.60
2023-01-17T09:09:11.614Z,4.17
2023-01-17T09:11:38.239Z,2.10
2023-01-17T09:14:04.477Z,14.73
2023-01-17T09:16:31.181Z,2.43
2023-01-17T09:18:58.305Z,5.50
2023-01-17T09:21:25.300Z,6.53
2023-01-17T09:23:52.085Z,6.53
2023-01-17T09:26:19.672Z,5.80
2023-01-17T09:28:46.021Z,0.90
2023-01-17T09:31:12.285Z,1.00
2023-01-17T09:33:38.587Z,1.10
2023-01-17T09:36:05.461Z,0.90
2023-01-17T09:38:32.598Z,1.10
2023-01-17T09:40:58.851Z,1.00
2023-01-17T09:43:44.466Z,1.07
2023-01-17T09:46:22.287Z,0.70
2023-01-17T09:48:50.823Z,0.73
2023-01-17T09:51:21.215Z,0.87
2023-01-17T09:53:47.595Z,0.87
2023-01-17T09:56:16.204Z,0.90
2023-01-17T09:58:46.203Z,0.70
2023-01-17T10:01:22.899Z,1.03
2023-01-17T10:03:55.451Z,0.77
2023-01-17T10:06:40.189Z,0.50
2023-01-17T10:09:15.175Z,1.17
2023-01-17T10:12:00.331Z,0.87
2023-01-17T10:14:40.441Z,0.77
2023-01-17T10:17:20.743Z,1.57
2023-01-17T10:20:04.177Z,0.73
2023-01-17T10:22:51.083Z,2.90
2023-01-17T10:25:30.507Z,1.67
2023-01-17T10:28:12.433Z,2.00
2023-01-17T10:30:42.510Z,0.90
2023-01-17T10:33:14.745Z,0.97
2023-01-17T10:35:48.076Z,1.90
2023-01-17T10:38:14.830Z,1.20
2023-01-17T10:40:43.773Z,1.13
2023-01-17T10:43:15.132Z,2.37
2023-01-17T10:45:44.810Z,1.60
2023-01-17T10:48:11.670Z,0.50
2023-01-17T10:50:52.802Z,1.37
2023-01-17T10:53:29.480Z,1.00
2023-01-17T10:55:56.014Z,1.00
2023-01-17T10:58:22.258Z,0.63
2023-01-17T11:00:52.304Z,1.40
2023-01-17T11:03:20.826Z,0.93
2023-01-17T11:06:08.245Z,2.30
2023-01-17T11:08:50.483Z,0.63
2023-01-17T11:11:16.951Z,2.13
2023-01-17T11:13:44.847Z,1.50
2023-01-17T11:16:16.311Z,2.70
2023-01-17T11:18:42.745Z,1.67
2023-01-17T11:21:13.374Z,0.87
2023-01-17T11:23:41.445Z,0.97
2023-01-17T11:26:10.230Z,1.77
2023-01-17T11:28:37.675Z,1.60
2023-01-17T11:31:24.300Z,0.80
2023-01-17T11:33:55.770Z,0.90
2023-01-17T11:36:27.439Z,2.40
2023-01-17T11:39:02.776Z,2.10
2023-01-17T11:41:39.448Z,0.60
2023-01-17T11:44:20.868Z,1.33
2023-01-17T11:46:47.163Z,30.13
2023-01-17T11:49:25.868Z,12.67
2023-01-17T11:51:56.082Z,20.50
2023-01-17T11:54:22.350Z,21.83
2023-01-17T11:56:48.719Z,5.47
2023-01-17T11:59:14.903Z,7.87
2023-01-17T12:01:46.093Z,4.63
2023-01-17T12:04:21.269Z,1.67
2023-01-17T12:06:58.304Z,7.07
2023-01-17T12:09:37.552Z,6.90
2023-01-17T12:12:33.904Z,3.57
2023-01-17T12:15:06.165Z,2.97
2023-01-17T12:17:35.374Z,5.50
2023-01-17T12:20:05.866Z,1.63
2023-01-17T12:22:33.969Z,1.00
2023-01-17T12:25:18.617Z,3.03
2023-01-17T12:28:05.005Z,1.87
2023-01-17T12:30:41.415Z,2.60
2023-01-17T12:33:14.040Z,2.00
2023-01-17T12:35:47.474Z,2.00
2023-01-17T12:38:33.263Z,1.47
2023-01-17T12:41:02.837Z,2.23
2023-01-17T12:43:37.334Z,3.67
2023-01-17T12:46:07.236Z,1.67
2023-01-17T12:48:37.841Z,2.13
2023-01-17T12:51:07.879Z,1.53
2023-01-17T12:53:49.188Z,2.83
2023-01-17T12:56:24.300Z,2.03
2023-01-17T12:58:52.572Z,1.70
2023-01-17T13:01:27.772Z,3.17
2023-01-17T13:03:57.835Z,3.80
2023-01-17T13:06:44.673Z,1.83
2023-01-17T13:09:13.625Z,2.87
2023-01-17T13:11:44.086Z,3.30
2023-01-17T13:14:10.563Z,0.97
2023-01-17T13:16:42.800Z,2.60
2023-01-17T13:19:18.313Z,3.20
2023-01-17T13:21:46.147Z,4.43
2023-01-17T13:24:22.677Z,4.33
2023-01-17T13:26:59.911Z,2.60
2023-01-17T13:29:40.229Z,2.43
2023-01-17T13:32:17.313Z,3.53
2023-01-17T13:34:43.775Z,1.70
2023-01-17T13:37:20.093Z,4.67
2023-01-17T13:39:54.657Z,1.63
2023-01-17T13:42:39.564Z,10.40
2023-01-17T13:45:07.114Z,6.13
2023-01-17T13:47:37.262Z,2.47
2023-01-17T13:50:03.564Z,2.23
2023-01-17T13:52:33.276Z,3.30
2023-01-17T13:55:01.263Z,4.00
2023-01-17T13:57:29.869Z,4.13
2023-01-17T13:59:57.044Z,3.90
2023-01-17T14:02:32.142Z,6.63
2023-01-17T14:05:08.534Z,5.33
2023-01-17T14:07:35.887Z,3.63
2023-01-17T14:10:16.433Z,2.73
2023-01-17T14:12:43.247Z,3.87
2023-01-17T14:15:18.619Z,5.13
2023-01-17T14:17:48.092Z,4.43
2023-01-17T14:20:16.034Z,3.63
2023-01-17T14:22:48.315Z,2.57
2023-01-17T14:25:20.101Z,3.20
2023-01-17T14:27:51.500Z,4.03
2023-01-17T14:30:17.973Z,2.57
2023-01-17T14:33:00.772Z,3.17
2023-01-17T14:35:31.482Z,6.30
2023-01-17T14:37:59.740Z,3.37
2023-01-17T14:40:27.418Z,5.97
2023-01-17T14:42:58.320Z,5.97
2023-01-17T14:45:26.697Z,5.43
2023-01-17T14:47:53.049Z,4.53
2023-01-17T14:50:24.358Z,5.30
2023-01-17T14:53:08.316Z,4.13
2023-01-17T14:55:34.625Z,5.70
2023-01-17T14:58:01.009Z,5.53
2023-01-17T15:00:30.274Z,5.33
2023-01-17T15:02:57.295Z,4.53
2023-01-17T15:05:24.725Z,4.50
2023-01-17T15:07:53.039Z,3.03
2023-01-17T15:10:25.028Z,4.53
2023-01-17T15:12:52.246Z,6.77
2023-01-17T15:15:41.905Z,3.90
2023-01-17T15:18:14.017Z,4.07
2023-01-17T15:20:47.408Z,7.70
2023-01-17T15:23:15.142Z,3.60
2023-01-17T15:25:41.691Z,4.07
2023-01-17T15:28:11.595Z,5.20
2023-01-17T15:30:37.985Z,1.90
2023-01-17T15:33:04.250Z,3.83
2023-01-17T15:35:30.544Z,3.83
2023-01-17T15:37:58.219Z,5.77
2023-01-17T15:40:25.126Z,3.40
2023-01-17T15:42:52.855Z,3.87
2023-01-17T15:45:32.250Z,4.13
2023-01-17T15:48:18.449Z,5.60
2023-01-17T15:50:45.532Z,3.13
2023-01-17T15:53:29.440Z,4.17
2023-01-17T15:55:55.659Z,4.23
2023-01-17T15:58:23.172Z,3.57
2023-01-17T16:00:49.538Z,4.20
2023-01-17T16:03:21.773Z,4.60
2023-01-17T16:05:49.119Z,4.00
2023-01-17T16:08:16.145Z,3.87
2023-01-17T16:10:42.909Z,4.73
2023-01-17T16:13:10.336Z,4.80
2023-01-17T16:15:37.390Z,4.53
2023-01-17T16:18:06.676Z,3.17
2023-01-17T16:20:35.491Z,2.70
2023-01-17T16:23:03.497Z,5.30
2023-01-17T16:25:32.947Z,7.23
2023-01-17T16:27:59.696Z,4.90
2023-01-17T16:30:26.321Z,5.17
2023-01-17T16:32:52.608Z,5.07
2023-01-17T16:35:23.123Z,5.00
2023-01-17T16:37:50.453Z,7.20
2023-01-17T16:40:17.356Z,4.10
2023-01-17T16:42:44.139Z,5.00
2023-01-17T16:45:11.119Z,3.67
2023-01-17T16:47:37.811Z,6.43
2023-01-17T16:50:04.185Z,2.93
2023-01-17T16:52:30.419Z,5.37
2023-01-17T16:54:56.637Z,4.40
2023-01-17T16:57:22.966Z,5.47
2023-01-17T16:59:50.778Z,6.40
2023-01-17T17:02:18.555Z,5.63
2023-01-17T17:04:44.989Z,3.30
2023-01-17T17:07:11.222Z,5.47
2023-01-17T17:09:37.473Z,8.90
2023-01-17T17:12:05.015Z,5.37
2023-01-17T17:14:31.268Z,4.73
2023-01-17T17:16:57.539Z,3.17
2023-01-17T17:19:24.398Z,5.67
2023-01-17T17:21:50.619Z,7.00
2023-01-17T17:24:17.368Z,6.57
2023-01-17T17:26:44.059Z,6.33
2023-01-17T17:29:11.976Z,8.30
2023-01-17T17:31:39.440Z,5.47
2023-01-17T17:34:07.312Z,7.53
2023-01-17T17:36:34.497Z,5.70
2023-01-17T17:39:02.160Z,9.23
2023-01-17T17:41:29.138Z,8.97
2023-01-17T17:43:55.519Z,6.27
2023-01-17T17:46:22.456Z,7.73
2023-01-17T17:48:49.130Z,6.77
2023-01-17T17:51:22.825Z,5.50
2023-01-17T17:53:49.177Z,7.80
2023-01-17T17:56:15.456Z,5.87
2023-01-17T17:58:42.164Z,5.83
2023-01-17T18:01:08.438Z,10.27
2023-01-17T18:03:34.916Z,6.07
2023-01-17T18:06:02.228Z,8.60
2023-01-17T18:08:33.440Z,11.90
2023-01-17T18:11:00.435Z,6.63
2023-01-17T18:13:26.775Z,6.23
2023-01-17T18:16:05.428Z,4.30
2023-01-17T18:18:33.594Z,5.37
2023-01-17T18:21:12.232Z,11.03
2023-01-17T18:23:39.415Z,6.63
2023-01-17T18:26:06.670Z,8.80
2023-01-17T18:28:32.912Z,6.80
2023-01-17T18:31:04.107Z,6.13
2023-01-17T18:33:30.319Z,7.73
2023-01-17T18:36:00.231Z,6.33
2023-01-17T18:38:37.791Z,7.60
2023-01-17T18:41:07.852Z,7.00
2023-01-17T18:43:34.503Z,7.87
2023-01-17T18:46:03.435Z,9.53
2023-01-17T18:48:31.254Z,9.17
2023-01-17T18:51:01.678Z,6.50
2023-01-17T18:53:29.414Z,6.30
2023-01-17T18:55:57.235Z,7.87
2023-01-17T18:58:27.266Z,14.20
2023-01-17T19:00:53.806Z,7.10
2023-01-17T19:03:24.515Z,9.10
2023-01-17T19:05:50.729Z,8.00
2023-01-17T19:08:17.064Z,12.27
2023-01-17T19:10:43.635Z,9.77
2023-01-17T19:13:11.101Z,5.90
2023-01-17T19:15:37.330Z,5.53
2023-01-17T19:18:04.304Z,6.47
2023-01-17T19:20:31.361Z,11.73
2023-01-17T19:22:57.583Z,5.60
2023-01-17T19:25:25.551Z,8.87
2023-01-17T19:27:52.734Z,8.93
2023-01-17T19:30:19.765Z,10.83
2023-01-17T19:32:46.391Z,10.87
2023-01-17T19:35:13.800Z,10.03
2023-01-17T19:37:43.550Z,9.00
2023-01-17T19:40:11.095Z,8.27
2023-01-17T19:42:37.308Z,8.63
2023-01-17T19:45:03.782Z,6.03
2023-01-17T19:47:31.158Z,8.30
2023-01-17T19:49:57.397Z,12.43
2023-01-17T19:52:24.190Z,11.50
2023-01-17T19:54:50.856Z,8.63
2023-01-17T19:57:17.999Z,10.07
2023-01-17T19:59:44.225Z,10.80
2023-01-17T20:02:11.538Z,8.37
2023-01-17T20:04:37.946Z,9.67
2023-01-17T20:07:05.397Z,9.17
2023-01-17T20:09:31.624Z,9.03
2023-01-17T20:11:57.855Z,8.70
2023-01-17T20:14:24.084Z,16.60
2023-01-17T20:16:51.336Z,11.60
2023-01-17T20:19:17.672Z,13.90
2023-01-17T20:21:43.950Z,10.17
2023-01-17T20:24:10.450Z,10.27
2023-01-17T20:26:36.699Z,11.80
2023-01-17T20:29:06.717Z,10.83
2023-01-17T20:31:33.356Z,9.47
2023-01-17T20:33:59.584Z,10.20
2023-01-17T20:36:28.809Z,15.93
2023-01-17T20:38:56.988Z,13.97
2023-01-17T20:41:24.622Z,12.10
2023-01-17T20:43:52.417Z,11.47
2023-01-17T20:46:19.319Z,11.90
2023-01-17T20:48:48.029Z,12.30
2023-01-17T20:51:15.686Z,12.80
2023-01-17T20:53:43.325Z,11.23
2023-01-17T20:56:11.759Z,11.80
2023-01-17T20:58:38.479Z,14.63
2023-01-17T21:01:05.983Z,12.90
2023-01-17T21:03:34.061Z,16.30
2023-01-17T21:06:04.192Z,10.87
2023-01-17T21:08:34.840Z,14.57
2023-01-17T21:11:01.208Z,12.53
2023-01-17T21:13:27.696Z,13.17
2023-01-17T21:15:54.107Z,16.20
2023-01-17T21:18:22.566Z,12.67
2023-01-17T21:20:49.187Z,11.37
2023-01-17T21:23:18.804Z,15.57
2023-01-17T21:25:55.807Z,13.30
2023-01-17T21:28:22.715Z,14.50
2023-01-17T21:30:52.615Z,13.83
2023-01-17T21:33:19.533Z,15.33
2023-01-17T21:35:45.756Z,13.50
2023-01-17T21:38:12.741Z,16.57
2023-01-17T21:40:39.045Z,16.73
2023-01-17T21:43:05.305Z,16.37
2023-01-17T21:45:34.562Z,17.70
2023-01-17T21:48:01.096Z,13.67
2023-01-17T21:50:33.408Z,14.13
2023-01-17T21:53:00.039Z,17.80
2023-01-17T21:55:45.296Z,16.90
2023-01-17T21:58:34.808Z,17.87
2023-01-17T22:01:21.453Z,16.30
2023-01-17T22:03:49.001Z,18.53
2023-01-17T22:06:15.282Z,15.30
2023-01-17T22:08:41.560Z,16.90
2023-01-17T22:11:09.311Z,18.17
2023-01-17T22:13:36.101Z,18.60
2023-01-17T22:16:04.256Z,16.23
2023-01-17T22:18:30.582Z,16.30
2023-01-17T22:20:57.338Z,20.60
2023-01-17T22:23:23.715Z,17.50
2023-01-17T22:25:51.010Z,18.20
2023-01-17T22:28:17.319Z,14.23
2023-01-17T22:30:43.653Z,16.70
2023-01-17T22:33:09.896Z,15.27
2023-01-17T22:35:36.126Z,14.80
2023-01-17T22:38:02.382Z,15.13
2023-01-17T22:40:28.695Z,15.67
2023-01-17T22:42:55.578Z,14.47
2023-01-17T22:45:21.988Z,13.30
2023-01-17T22:47:48.186Z,15.50
2023-01-17T22:50:14.407Z,15.27
2023-01-17T22:52:40.683Z,14.77
2023-01-17T22:55:07.105Z,13.50
2023-01-17T22:57:33.922Z,14.97
2023-01-17T23:00:00.223Z,15.73
2023-01-17T23:02:26.482Z,13.07
2023-01-17T23:04:52.699Z,14.70
2023-01-17T23:07:18.976Z,14.80
2023-01-17T23:09:45.224Z,15.27
2023-01-17T23:12:11.456Z,15.20
2023-01-17T23:14:56.659Z,12.60
2023-01-17T23:17:42.365Z,12.03
2023-01-17T23:20:09.308Z,13.13
2023-01-17T23:22:35.761Z,14.80
2023-01-17T23:25:09.627Z,13.57
2023-01-17T23:27:56.334Z,13.57
2023-01-17T23:30:24.899Z,15.63
2023-01-17T23:32:52.337Z,14.70
2023-01-17T23:35:20.030Z,14.23
2023-01-17T23:38:04.762Z,13.53
2023-01-17T23:40:31.677Z,12.60
2023-01-17T23:43:16.408Z,16.80
2023-01-17T23:45:42.885Z,12.40
2023-01-17T23:48:09.558Z,14.47
2023-01-17T23:50:39.522Z,14.63
2023-01-17T23:53:07.014Z,18.57
2023-01-17T23:55:40.515Z,17.97
2023-01-17T23:58:07.668Z,15.80
